Ozark Regional Airport
KBPK : now visible

Airfield :











YOU CAN JOIN US ON...

 
LOGIN :

Register | Disclaimer

   EN    FR    IT 

 









Legend :    VFR   Marginal VFR   IFR   Intensive IFR   Very Intensive IFR
Visi :
Ceiling :
>= 8 km
>= 3000ft
5 to 8 km
1000 to 3000 ft
1500m to 5 km
500 to 1000 ft
800 to 1500m
200 to 500 ft
< 800m
< 200 ft
Symbols :   Thunderstorms  Fog  Heavy snow  Heavy precipitations  Wind > 20 kt






- Airport Elevation : 928 ft


KBPK - Ozark Regional

CURRENT METAR :
  • 041253Z AUTO 00000KT 10SM CLR 10/06 A3020 RMK AO2 SLP224 T01000061

EXPIRED METARs :
  • 041153Z AUTO 00000KT 10SM CLR 08/05 A3019 RMK AO2 SLP221 7//// T00780050 10139 20078 53007
  • 041053Z AUTO 00000KT 10SM CLR 09/05 A3019 RMK AO2 SLP217 T00890050

TAF KBPK
Valid from the 04 at 12:00 until the 05 at 12:00 UTC


041120Z 0412/0512 VRB06KT P6SM SKC
KZME FIR / North America



MET'MAP, your aeronautical weather chart ! - Copyright ORBIFLY December 2007 - Disclaimer

ORBIFLY MET'MAP TEAM :

Programming & Development : Alexandra Zaïnal
Original concept : Baudouin d'Aumeries
Technical & hardware support : Manuel Goepfert
Assistance : Marc-Olivier Méhu




SOURCES & CREDITS :

   NOAA       Earth
Advisory